Time;durP1;ratioP1;P1;durP2;ratioP2;P2;SDS_P1;SDS_P2;PMS_P1;PMS_P2;Temp;Humidity;BMP_temperature;BMP_pressure;BME280_temperature;BME280_humidity;BME280_pressure;Samples;Min_cycle;Max_cycle;Signal;HPM_P1;HPM_P2
2021/06/08 04:31:05;;;;;;;52.30;35.13;;;16.60;99.90;;;;;;5654522;23;20492;-71
2021/06/08 04:33:31;;;;;;;46.47;33.73;;;16.70;99.90;;;;;;4951302;29;20460;-71
2021/06/08 04:35:57;;;;;;;48.67;35.00;;;16.70;99.90;;;;;;4954984;28;20188;-70
2021/06/08 04:38:23;;;;;;;50.47;36.37;;;16.70;99.90;;;;;;4955178;29;20221;-71
2021/06/08 04:40:51;;;;;;;44.60;35.00;;;16.70;99.90;;;;;;4957223;28;20848;-71
2021/06/08 04:43:24;;;;;;;54.10;35.73;;;16.80;99.90;;;;;;4974184;28;20462;-71
2021/06/08 04:45:51;;;;;;;45.43;33.30;;;16.80;99.90;;;;;;4974465;28;20419;-71
2021/06/08 04:48:17;;;;;;;51.83;35.40;;;16.80;99.90;;;;;;4956965;28;20423;-71
2021/06/08 04:50:42;;;;;;;45.53;35.30;;;16.90;99.90;;;;;;4973977;28;20489;-71
2021/06/08 04:53:08;;;;;;;43.00;32.53;;;16.90;99.90;;;;;;4974359;28;20635;-71
2021/06/08 04:55:33;;;;;;;46.00;34.17;;;16.90;99.90;;;;;;4975420;28;20191;-70
2021/06/08 04:57:59;;;;;;;47.70;33.67;;;16.90;99.90;;;;;;4974730;28;20180;-70
2021/06/08 05:00:50;;;;;;;44.23;34.50;;;17.00;99.90;;;;;;4973584;28;20183;-70
2021/06/08 05:03:20;;;;;;;50.20;35.10;;;17.00;99.90;;;;;;4973669;28;20250;-70
2021/06/08 05:05:52;;;;;;;46.63;34.60;;;17.00;99.90;;;;;;4973960;28;20423;-70
2021/06/08 05:08:34;;;;;;;46.10;33.33;;;17.10;99.90;;;;;;4974230;28;20945;-70
2021/06/08 05:11:41;;;;;;;42.30;31.90;;;17.10;99.90;;;;;;4973773;28;20427;-70
2021/06/08 05:14:08;;;;;;;43.63;30.77;;;17.30;99.90;;;;;;4944010;28;20468;-70
2021/06/08 05:16:39;;;;;;;41.77;31.37;;;17.30;99.90;;;;;;4973713;28;20416;-70
2021/06/08 05:19:05;;;;;;;38.50;32.03;;;17.30;99.90;;;;;;4973002;28;20482;-70
2021/06/08 05:21:32;;;;;;;37.63;31.90;;;17.40;99.90;;;;;;4973417;28;20435;-70
2021/06/08 05:23:57;;;;;;;39.20;30.93;;;17.40;99.90;;;;;;4973573;28;20772;-70
2021/06/08 05:26:24;;;;;;;39.10;31.00;;;17.40;99.90;;;;;;4973387;28;20414;-70
2021/06/08 05:28:50;;;;;;;38.97;30.37;;;17.40;99.90;;;;;;4973526;28;20645;-70
2021/06/08 05:31:19;;;;;;;39.30;31.70;;;17.40;99.90;;;;;;4972994;28;20501;-70
2021/06/08 05:33:45;;;;;;;40.83;30.60;;;17.40;99.90;;;;;;4973261;28;20420;-70
2021/06/08 05:36:11;;;;;;;40.10;31.90;;;17.40;99.90;;;;;;4973274;28;20620;-70
2021/06/08 05:38:39;;;;;;;42.10;32.10;;;17.40;99.90;;;;;;4973277;28;20550;-70
2021/06/08 05:41:07;;;;;;;42.43;32.40;;;17.40;99.90;;;;;;4973159;28;20278;-70
2021/06/08 05:43:33;;;;;;;43.93;32.13;;;17.40;99.90;;;;;;4973078;28;20415;-70
2021/06/08 05:45:59;;;;;;;38.93;32.20;;;17.40;99.90;;;;;;4973336;28;20408;-70
2021/06/08 05:48:26;;;;;;;38.90;31.40;;;17.40;99.90;;;;;;4955962;28;20426;-70
2021/06/08 05:50:57;;;;;;;39.40;30.43;;;17.40;99.90;;;;;;4974089;28;20462;-71
2021/06/08 05:53:24;;;;;;;42.47;31.77;;;17.40;99.90;;;;;;4974634;28;20490;-72
2021/06/08 05:55:51;;;;;;;41.47;32.40;;;17.40;99.90;;;;;;4974238;28;20415;-70
2021/06/08 05:58:23;;;;;;;39.17;32.20;;;17.40;99.90;;;;;;4975996;28;20462;-72
2021/06/08 06:00:50;;;;;;;55.57;32.50;;;17.40;99.90;;;;;;4974241;28;20446;-71
2021/06/08 06:03:17;;;;;;;39.03;31.30;;;17.40;99.90;;;;;;4956925;28;20423;-72
2021/06/08 06:05:43;;;;;;;43.43;32.10;;;17.40;99.90;;;;;;4974220;28;20407;-72
2021/06/08 06:08:09;;;;;;;38.43;30.13;;;17.40;99.90;;;;;;4974110;28;20411;-72
2021/06/08 06:10:35;;;;;;;37.77;30.60;;;17.40;99.90;;;;;;4973533;28;20443;-71
2021/06/08 06:13:01;;;;;;;37.63;30.90;;;17.40;99.90;;;;;;4973720;28;20537;-71
2021/06/08 06:15:30;;;;;;;40.77;30.27;;;17.40;99.90;;;;;;4973982;28;20172;-73
2021/06/08 06:17:56;;;;;;;38.30;31.47;;;17.40;99.90;;;;;;4973135;28;20809;-73
2021/06/08 06:20:22;;;;;;;39.10;31.00;;;17.50;99.90;;;;;;4972570;28;20749;-71
2021/06/08 06:22:50;;;;;;;40.67;31.73;;;17.50;99.90;;;;;;4973014;28;21055;-71
2021/06/08 06:25:16;;;;;;;38.50;31.40;;;17.50;99.90;;;;;;4973250;28;20934;-73
2021/06/08 06:27:42;;;;;;;36.80;30.13;;;17.50;99.90;;;;;;4956159;28;20759;-72
2021/06/08 06:30:14;;;;;;;40.00;30.80;;;17.50;99.90;;;;;;4973539;28;20411;-72
2021/06/08 06:32:40;;;;;;;41.97;30.37;;;17.50;99.90;;;;;;4977034;28;20458;-72
2021/06/08 06:35:08;;;;;;;34.20;29.93;;;17.60;99.90;;;;;;4976703;28;20426;-72
2021/06/08 06:37:35;;;;;;;40.13;30.70;;;17.60;99.90;;;;;;4976799;28;20959;-72
2021/06/08 06:40:01;;;;;;;36.77;31.00;;;17.60;99.90;;;;;;4976632;28;20463;-72
2021/06/08 06:42:32;;;;;;;36.43;30.23;;;17.70;99.90;;;;;;4976440;28;20475;-72
2021/06/08 06:44:59;;;;;;;37.10;30.70;;;17.80;99.90;;;;;;4976453;28;20419;-72
2021/06/08 06:47:25;;;;;;;39.97;30.37;;;17.80;99.90;;;;;;4975308;28;20569;-72
2021/06/08 06:49:51;;;;;;;35.83;28.17;;;17.80;99.90;;;;;;4976695;28;20506;-72
2021/06/08 06:52:17;;;;;;;38.70;29.07;;;17.90;99.90;;;;;;4976453;28;20434;-72
2021/06/08 06:54:44;;;;;;;34.63;28.20;;;18.00;99.90;;;;;;4977615;28;20213;-72
2021/06/08 06:57:10;;;;;;;36.70;29.80;;;18.00;99.90;;;;;;4977262;28;20419;-72
2021/06/08 06:59:36;;;;;;;35.67;28.20;;;18.00;99.90;;;;;;4976476;28;20455;-72
2021/06/08 07:02:04;;;;;;;38.50;27.93;;;18.10;99.90;;;;;;4976189;28;20435;-72
2021/06/08 07:04:30;;;;;;;36.50;28.33;;;18.20;99.90;;;;;;4976106;28;20781;-72
2021/06/08 07:06:56;;;;;;;37.13;27.80;;;18.20;99.90;;;;;;4975912;28;20920;-72
2021/06/08 07:09:24;;;;;;;37.97;27.90;;;18.20;99.90;;;;;;4976050;28;20812;-72
2021/06/08 07:11:52;;;;;;;36.80;29.50;;;18.10;99.90;;;;;;4975829;28;20451;-72
2021/06/08 07:14:19;;;;;;;37.00;28.10;;;18.20;99.90;;;;;;4976070;28;20443;-72
2021/06/08 07:16:46;;;;;;;34.70;28.03;;;18.20;99.90;;;;;;4975657;28;20425;-72
2021/06/08 07:19:13;;;;;;;35.60;28.53;;;18.20;99.90;;;;;;4975575;28;20497;-72
2021/06/08 07:21:42;;;;;;;37.23;30.40;;;18.20;99.90;;;;;;4976117;28;20442;-72
2021/06/08 07:24:11;;;;;;;35.87;29.33;;;18.20;99.90;;;;;;4975715;28;20446;-71
2021/06/08 07:26:39;;;;;;;38.80;31.97;;;18.20;99.90;;;;;;4975972;28;21002;-72
2021/06/08 07:29:11;;;;;;;38.83;30.37;;;18.20;99.90;;;;;;4975784;28;20446;-72
2021/06/08 07:31:47;;;;;;;41.83;30.97;;;18.20;99.90;;;;;;4975672;28;21049;-72
2021/06/08 07:34:22;;;;;;;34.10;27.97;;;18.30;99.90;;;;;;4975419;28;20433;-72
2021/06/08 07:36:48;;;;;;;34.90;29.70;;;18.20;99.90;;;;;;4975588;28;20418;-72
2021/06/08 07:39:28;;;;;;;35.27;29.60;;;18.20;99.90;;;;;;4977907;28;20459;-72
2021/06/08 07:41:59;;;;;;;39.10;29.50;;;18.20;99.90;;;;;;4974607;28;20442;-71
2021/06/08 07:44:37;;;;;;;36.20;28.43;;;18.20;99.90;;;;;;4975163;28;20412;-72
2021/06/08 07:47:06;;;;;;;38.37;29.17;;;18.20;99.90;;;;;;4975317;28;20399;-69
2021/06/08 07:49:33;;;;;;;40.87;29.70;;;18.30;99.90;;;;;;4975227;28;20442;-69
2021/06/08 07:52:01;;;;;;;35.50;28.93;;;18.40;99.90;;;;;;4975221;28;20522;-69
2021/06/08 07:54:28;;;;;;;37.30;31.30;;;18.40;99.90;;;;;;4975326;28;20415;-69
2021/06/08 07:56:55;;;;;;;38.07;30.43;;;18.40;99.90;;;;;;4975361;28;20458;-69
2021/06/08 07:59:21;;;;;;;38.30;29.90;;;18.50;99.90;;;;;;4975075;28;21057;-69
2021/06/08 08:01:46;;;;;;;35.80;29.53;;;18.60;99.90;;;;;;4975106;28;20432;-69
2021/06/08 08:04:18;;;;;;;40.30;31.87;;;18.70;99.90;;;;;;4974901;28;20412;-69
2021/06/08 08:06:52;;;;;;;39.27;29.90;;;18.70;99.90;;;;;;4975088;28;20168;-70
2021/06/08 08:09:19;;;;;;;35.33;31.37;;;18.70;99.90;;;;;;4975015;28;20421;-71
2021/06/08 08:11:51;;;;;;;36.03;30.30;;;18.80;99.90;;;;;;4957205;28;20453;-70
2021/06/08 08:14:20;;;;;;;42.70;33.07;;;18.90;99.90;;;;;;4975000;28;20439;-71
2021/06/08 08:16:48;;;;;;;39.60;31.77;;;18.90;99.90;;;;;;4974816;28;20799;-70
2021/06/08 08:19:19;;;;;;;34.30;30.17;;;18.90;99.90;;;;;;4974776;28;20558;-70
2021/06/08 08:21:45;;;;;;;39.90;30.90;;;19.10;99.90;;;;;;4974656;28;20439;-70
2021/06/08 08:24:10;;;;;;;35.73;29.47;;;19.10;99.90;;;;;;4974643;28;20415;-70
2021/06/08 08:26:36;;;;;;;34.83;28.80;;;19.20;99.90;;;;;;4974675;28;20411;-70
2021/06/08 08:29:03;;;;;;;38.00;31.07;;;19.20;99.90;;;;;;4975187;28;20239;-73
2021/06/08 08:31:30;;;;;;;38.57;32.17;;;19.30;99.90;;;;;;4975018;28;20725;-73
2021/06/08 08:33:56;;;;;;;37.03;30.00;;;19.20;99.90;;;;;;4974950;28;20427;-71
2021/06/08 08:36:23;;;;;;;38.90;31.60;;;19.00;99.90;;;;;;4974660;28;20474;-71
2021/06/08 08:38:48;;;;;;;40.17;34.43;;;18.90;99.90;;;;;;4974587;28;20451;-72
2021/06/08 08:41:14;;;;;;;37.13;31.70;;;18.90;99.90;;;;;;4974478;28;20469;-71
2021/06/08 08:43:47;;;;;;;34.93;29.63;;;18.90;99.90;;;;;;4974849;28;20259;-71
2021/06/08 08:46:16;;;;;;;39.17;30.27;;;19.00;99.90;;;;;;4974610;28;20537;-71
2021/06/08 08:48:43;;;;;;;33.87;30.00;;;19.10;99.90;;;;;;4974561;28;20420;-71
2021/06/08 08:51:13;;;;;;;32.70;28.07;;;19.20;99.90;;;;;;4974445;28;20427;-72
2021/06/08 08:53:39;;;;;;;35.57;30.40;;;19.30;99.90;;;;;;4974098;28;21015;-72
2021/06/08 08:56:06;;;;;;;38.83;32.10;;;19.30;99.90;;;;;;4975292;28;20423;-72
2021/06/08 08:58:33;;;;;;;31.33;27.93;;;19.20;99.90;;;;;;4974411;28;20728;-71
2021/06/08 09:00:59;;;;;;;35.17;31.37;;;19.30;99.90;;;;;;4974776;28;20431;-72
2021/06/08 09:03:25;;;;;;;36.90;29.70;;;19.40;99.90;;;;;;4974278;28;20514;-72
2021/06/08 09:05:55;;;;;;;43.43;32.43;;;19.60;99.90;;;;;;4956586;28;20466;-72
2021/06/08 09:08:22;;;;;;;35.70;29.00;;;19.80;99.90;;;;;;4973986;28;20435;-72
2021/06/08 09:10:48;;;;;;;33.37;29.77;;;19.80;99.90;;;;;;4973717;28;20439;-69
2021/06/08 09:13:13;;;;;;;37.37;30.47;;;20.00;99.90;;;;;;4973846;28;20418;-72
2021/06/08 09:15:45;;;;;;;32.50;29.00;;;20.00;99.90;;;;;;5109688;27;20299;-71
2021/06/08 09:18:11;;;;;;;31.53;28.23;;;20.00;99.90;;;;;;5089216;28;20407;-71
2021/06/08 09:20:38;;;;;;;32.90;27.10;;;20.20;99.90;;;;;;5094585;28;20441;-71
2021/06/08 09:23:08;;;;;;;34.20;28.13;;;20.30;99.90;;;;;;5109206;28;20437;-71
2021/06/08 09:25:37;;;;;;;32.17;28.63;;;20.50;99.90;;;;;;5108938;28;20444;-71
2021/06/08 09:28:12;;;;;;;32.70;29.20;;;20.60;99.90;;;;;;5109324;28;20418;-71
2021/06/08 09:30:38;;;;;;;33.10;29.67;;;20.80;99.90;;;;;;5096175;28;20903;-71
2021/06/08 09:33:32;;;;;;;33.67;30.13;;;20.90;99.90;;;;;;5087050;28;20446;-71
2021/06/08 09:36:05;;;;;;;41.63;25.97;;;21.10;99.90;;;;;;5087139;28;20430;-71
2021/06/08 09:39:05;;;;;;;31.77;28.23;;;21.20;99.90;;;;;;5088826;28;20402;-71
2021/06/08 09:41:41;;;;;;;30.77;27.37;;;21.60;99.90;;;;;;5084208;28;21106;-71
2021/06/08 09:44:10;;;;;;;30.27;26.97;;;22.20;99.90;;;;;;5088533;28;20432;-72
2021/06/08 09:46:54;;;;;;;30.37;27.07;;;22.60;99.90;;;;;;5088687;28;20413;-71
2021/06/08 09:49:29;;;;;;;36.27;26.67;;;22.90;99.90;;;;;;5089015;28;20414;-72
2021/06/08 09:52:08;;;;;;;28.60;25.63;;;22.90;99.90;;;;;;5089691;28;20934;-72
2021/06/08 09:54:34;;;;;;;31.20;28.10;;;23.00;99.90;;;;;;5088450;28;20988;-70
2021/06/08 09:57:27;;;;;;;30.13;26.93;;;23.10;99.90;;;;;;5088480;28;20398;-71
2021/06/08 09:59:58;;;;;;;30.27;25.40;;;22.90;99.90;;;;;;5082542;28;20249;-71
2021/06/08 10:02:44;;;;;;;31.60;28.47;;;22.60;99.90;;;;;;5088007;28;20538;-71
2021/06/08 10:05:29;;;;;;;31.20;26.73;;;22.70;99.90;;;;;;5088391;28;20413;-71
2021/06/08 10:07:58;;;;;;;32.17;27.30;;;23.10;99.90;;;;;;5087057;28;20529;-71
2021/06/08 10:10:38;;;;;;;27.90;25.00;;;23.60;99.90;;;;;;5088311;28;20410;-71
2021/06/08 10:13:10;;;;;;;27.03;24.27;;;24.50;99.90;;;;;;5088867;28;21031;-71
2021/06/08 10:15:58;;;;;;;28.90;25.13;;;25.30;99.90;;;;;;5088980;28;20469;-72
2021/06/08 10:18:40;;;;;;;30.93;26.10;;;25.20;99.90;;;;;;5087923;28;20469;-72
2021/06/08 10:21:06;;;;;;;32.57;26.33;;;25.10;99.90;;;;;;5089358;28;20482;-71
2021/06/08 10:23:33;;;;;;;28.20;25.43;;;24.90;99.90;;;;;;5088983;28;20406;-71
2021/06/08 10:26:11;;;;;;;31.80;27.10;;;24.50;99.90;;;;;;5081613;28;20169;-71
2021/06/08 10:28:37;;;;;;;30.60;27.60;;;24.10;99.90;;;;;;5075296;28;20747;-71
2021/06/08 10:31:04;;;;;;;30.23;27.23;;;23.80;99.90;;;;;;5074530;28;20419;-71
2021/06/08 10:33:30;;;;;;;34.33;26.20;;;23.90;99.90;;;;;;5074173;28;20552;-71
2021/06/08 10:35:56;;;;;;;30.10;27.10;;;23.90;99.90;;;;;;5074492;28;20495;-71
2021/06/08 10:38:24;;;;;;;27.10;24.47;;;23.70;99.90;;;;;;5074299;28;20407;-72
2021/06/08 10:40:53;;;;;;;28.80;25.80;;;23.50;99.90;;;;;;5074381;28;20435;-71
2021/06/08 10:43:38;;;;;;;30.80;27.63;;;23.40;99.90;;;;;;5074183;28;20410;-71
2021/06/08 10:46:04;;;;;;;28.60;25.60;;;23.30;99.90;;;;;;5074014;28;20407;-71
2021/06/08 10:48:41;;;;;;;32.03;28.43;;;23.20;99.90;;;;;;5072835;28;20426;-71
2021/06/08 10:51:11;;;;;;;30.07;26.90;;;23.00;99.90;;;;;;5073899;28;20457;-71
2021/06/08 10:53:41;;;;;;;31.23;28.20;;;22.90;99.90;;;;;;5075463;28;20410;-72
2021/06/08 10:56:54;;;;;;;32.37;26.90;;;22.90;99.90;;;;;;5075120;28;20414;-71
2021/06/08 10:59:34;;;;;;;27.60;24.77;;;22.70;99.90;;;;;;5031777;28;20974;-71
2021/06/08 11:02:00;;;;;;;31.53;28.43;;;22.70;99.90;;;;;;5073284;28;20484;-71
2021/06/08 11:04:53;;;;;;;27.13;24.43;;;22.70;99.90;;;;;;5073986;28;20422;-71
2021/06/08 11:07:43;;;;;;;27.67;24.83;;;22.60;99.90;;;;;;5073946;28;20193;-72
2021/06/08 11:10:27;;;;;;;29.37;26.47;;;22.70;99.90;;;;;;5073548;28;20403;-72
2021/06/08 11:13:12;;;;;;;30.17;27.13;;;22.80;99.90;;;;;;5074035;28;20501;-72
2021/06/08 11:15:46;;;;;;;31.60;28.20;;;22.90;99.90;;;;;;5073562;28;20466;-72
2021/06/08 11:18:17;;;;;;;30.77;27.40;;;22.90;99.90;;;;;;5073117;28;20407;-72
2021/06/08 11:20:44;;;;;;;31.00;27.27;;;22.90;99.90;;;;;;5073506;28;20427;-72
2021/06/08 11:23:10;;;;;;;29.60;26.60;;;22.90;99.90;;;;;;5073267;28;20411;-72
2021/06/08 11:25:51;;;;;;;30.13;27.20;;;22.90;99.90;;;;;;5072614;28;20778;-71
2021/06/08 11:28:17;;;;;;;28.80;25.20;;;22.90;99.90;;;;;;5073323;28;20179;-72
2021/06/08 11:31:00;;;;;;;27.37;24.63;;;23.00;99.90;;;;;;5073120;28;20946;-72
2021/06/08 11:33:41;;;;;;;27.97;25.03;;;23.10;99.90;;;;;;5072759;28;20410;-71
2021/06/08 11:36:19;;;;;;;28.30;25.33;;;23.10;99.90;;;;;;5072875;28;20402;-72
2021/06/08 11:38:56;;;;;;;26.70;24.10;;;23.20;99.90;;;;;;5071041;28;20923;-72
2021/06/08 11:41:22;;;;;;;29.23;24.40;;;23.30;99.90;;;;;;5072819;28;20438;-72
2021/06/08 11:43:52;;;;;;;26.47;23.97;;;23.40;99.90;;;;;;5073112;28;20407;-72
2021/06/08 11:46:29;;;;;;;27.03;24.33;;;23.50;99.90;;;;;;5074671;28;20475;-72
2021/06/08 11:49:17;;;;;;;31.80;26.20;;;23.50;99.90;;;;;;5073278;28;20411;-72
2021/06/08 11:51:49;;;;;;;28.80;26.00;;;23.50;99.90;;;;;;5072757;28;20453;-71
2021/06/08 11:54:46;;;;;;;27.23;24.57;;;23.40;99.90;;;;;;5072693;28;20542;-71
2021/06/08 11:57:14;;;;;;;29.80;24.30;;;23.50;99.90;;;;;;5072099;28;20419;-71
2021/06/08 11:59:43;;;;;;;27.43;24.83;;;23.70;99.90;;;;;;5072715;28;20430;-72
2021/06/08 12:05:05;;;;;;;26.60;24.00;;;24.00;99.90;;;;;;5061770;28;20571;-73
2021/06/08 12:08:09;;;;;;;27.07;24.33;;;24.00;99.90;;;;;;5068501;28;20407;-73
2021/06/08 12:10:40;;;;;;;29.27;23.10;;;23.90;99.90;;;;;;5070286;28;20410;-73
2021/06/08 12:13:06;;;;;;;25.93;23.23;;;23.90;99.90;;;;;;5070194;28;20395;-73
2021/06/08 12:15:37;;;;;;;25.80;23.07;;;23.80;99.90;;;;;;5070614;28;20462;-73
2021/06/08 12:18:04;;;;;;;26.80;23.87;;;23.70;99.90;;;;;;5069542;28;20415;-75
2021/06/08 12:20:31;;;;;;;26.50;21.97;;;23.80;99.90;;;;;;5069975;28;20982;-72
2021/06/08 12:22:56;;;;;;;29.90;26.67;;;23.90;99.90;;;;;;5070269;28;20418;-74
2021/06/08 12:25:22;;;;;;;27.33;24.50;;;23.70;99.90;;;;;;5069681;28;20803;-74
2021/06/08 12:27:48;;;;;;;27.87;25.00;;;23.70;99.90;;;;;;5070389;28;20407;-73
2021/06/08 12:30:20;;;;;;;26.87;23.97;;;23.70;99.90;;;;;;5070815;28;20176;-73
2021/06/08 12:32:52;;;;;;;27.37;24.47;;;23.80;99.90;;;;;;5070024;28;20794;-72
2021/06/08 12:35:25;;;;;;;27.70;23.93;;;23.80;99.90;;;;;;5070051;28;20548;-72
2021/06/08 12:37:51;;;;;;;22.07;19.87;;;23.90;99.90;;;;;;5070102;28;20919;-74
2021/06/08 12:40:19;;;;;;;25.63;23.03;;;24.10;99.90;;;;;;5070586;28;20495;-73
2021/06/08 12:42:45;;;;;;;24.85;22.55;;;24.30;99.90;;;;;;5068146;28;20414;-73
2021/06/08 12:45:11;;;;;;;25.43;21.90;;;24.40;99.90;;;;;;5070573;28;20234;-74
2021/06/08 12:47:37;;;;;;;23.63;21.37;;;24.50;99.90;;;;;;5070513;28;20414;-74
2021/06/08 12:50:09;;;;;;;23.57;20.53;;;24.50;99.90;;;;;;5068565;28;20427;-74
2021/06/08 12:52:35;;;;;;;26.07;20.80;;;24.60;99.90;;;;;;5068539;28;20254;-71
2021/06/08 12:55:11;;;;;;;22.60;20.50;;;24.50;99.90;;;;;;5069976;28;20857;-74
2021/06/08 12:57:37;;;;;;;22.50;20.20;;;24.60;99.90;;;;;;5070227;28;20222;-74
2021/06/08 13:00:02;;;;;;;23.87;21.47;;;24.60;99.90;;;;;;5068966;28;20790;-72
2021/06/08 13:02:29;;;;;;;27.23;23.53;;;24.50;99.90;;;;;;5069308;28;20200;-73
2021/06/08 13:04:58;;;;;;;22.67;20.47;;;24.50;99.90;;;;;;5069616;28;20199;-74
2021/06/08 13:07:24;;;;;;;23.43;21.03;;;24.40;99.90;;;;;;5068827;28;20468;-74
2021/06/08 13:09:58;;;;;;;23.30;20.87;;;24.30;99.90;;;;;;5069471;28;20415;-74
2021/06/08 13:12:24;;;;;;;22.40;19.97;;;24.30;99.90;;;;;;5069578;28;20438;-74
2021/06/08 13:15:05;;;;;;;22.67;20.30;;;24.40;99.90;;;;;;5069186;28;20450;-74
2021/06/08 13:17:30;;;;;;;23.77;20.67;;;24.30;99.90;;;;;;5070116;28;20407;-74
2021/06/08 13:19:57;;;;;;;21.73;19.83;;;24.30;99.90;;;;;;5070141;28;20411;-74
2021/06/08 13:22:25;;;;;;;21.43;19.43;;;24.50;99.90;;;;;;5069396;28;20680;-74
2021/06/08 13:24:54;;;;;;;21.73;19.30;;;24.40;99.90;;;;;;5068520;28;20853;-74
2021/06/08 13:27:28;;;;;;;24.07;21.67;;;24.40;99.90;;;;;;5070147;28;21000;-73
2021/06/08 13:29:57;;;;;;;20.03;18.20;;;24.40;99.90;;;;;;5070142;28;20906;-73
2021/06/08 13:32:26;;;;;;;20.07;18.27;;;24.70;99.90;;;;;;5069716;28;20445;-74
2021/06/08 13:35:18;;;;;;;21.17;19.17;;;24.90;99.90;;;;;;5069098;28;20454;-74
2021/06/08 13:37:55;;;;;;;21.73;19.57;;;24.80;99.90;;;;;;5070284;28;20400;-74
2021/06/08 13:40:26;;;;;;;21.63;19.23;;;24.80;99.90;;;;;;5069849;28;20406;-74
2021/06/08 13:42:55;;;;;;;20.37;18.33;;;24.60;99.90;;;;;;5069508;28;20509;-74
2021/06/08 13:45:36;;;;;;;22.07;19.73;;;24.40;99.90;;;;;;5069553;28;20418;-74
2021/06/08 13:48:28;;;;;;;22.20;19.93;;;24.30;99.90;;;;;;5070079;28;20433;-74
2021/06/08 13:51:12;;;;;;;21.50;19.30;;;24.20;99.90;;;;;;5069316;28;20954;-74
2021/06/08 13:53:38;;;;;;;23.47;21.20;;;24.00;99.90;;;;;;5067727;28;20415;-74
2021/06/08 13:56:14;;;;;;;28.10;20.10;;;24.00;99.90;;;;;;5069964;28;20419;-74
2021/06/08 14:01:30;;;;;;;19.80;18.03;;;24.30;99.90;;;;;;5070772;28;20437;-73
2021/06/08 14:04:04;;;;;;;21.43;18.00;;;24.40;99.90;;;;;;5072877;28;20434;-74
2021/06/08 14:06:30;;;;;;;20.10;18.20;;;24.40;99.90;;;;;;5073099;28;20421;-74
2021/06/08 14:08:58;;;;;;;19.10;17.30;;;24.40;99.90;;;;;;5073749;28;20612;-73
2021/06/08 14:11:41;;;;;;;19.73;17.73;;;24.30;99.90;;;;;;5072822;28;20204;-74
2021/06/08 14:14:10;;;;;;;24.40;22.07;;;24.50;99.90;;;;;;5072339;28;20508;-74
2021/06/08 14:16:36;;;;;;;19.27;17.50;;;24.60;99.90;;;;;;5072988;28;20426;-74
2021/06/08 14:19:01;;;;;;;20.90;18.80;;;24.80;99.90;;;;;;5073250;28;20407;-74
2021/06/08 14:21:27;;;;;;;22.00;18.30;;;24.80;99.90;;;;;;5072400;28;20196;-74
2021/06/08 14:23:57;;;;;;;27.83;21.03;;;24.80;99.90;;;;;;5072366;28;20184;-73
2021/06/08 14:26:27;;;;;;;20.90;18.47;;;24.80;99.90;;;;;;5073001;28;20176;-73
2021/06/08 14:28:54;;;;;;;23.73;20.07;;;24.80;99.90;;;;;;5073096;28;20588;-74
2021/06/08 14:31:20;;;;;;;20.13;18.30;;;24.60;99.90;;;;;;5072681;28;20469;-73
2021/06/08 14:33:45;;;;;;;20.33;18.47;;;24.60;99.90;;;;;;5072010;28;20546;-73
2021/06/08 14:36:11;;;;;;;22.17;17.23;;;24.70;99.90;;;;;;5072385;28;20188;-74
2021/06/08 14:38:37;;;;;;;19.50;17.60;;;24.70;99.90;;;;;;5072761;28;20259;-74
2021/06/08 14:41:03;;;;;;;36.20;21.60;;;24.80;99.90;;;;;;5072870;28;20664;-74
2021/06/08 14:43:29;;;;;;;23.90;19.47;;;24.90;99.90;;;;;;5071637;28;20413;-74
2021/06/08 14:45:55;;;;;;;22.53;18.70;;;24.90;99.90;;;;;;5072353;28;20187;-74
2021/06/08 14:48:20;;;;;;;19.57;17.60;;;24.90;99.90;;;;;;5072514;28;20176;-74
2021/06/08 14:50:46;;;;;;;19.70;17.53;;;25.00;99.90;;;;;;5072525;28;20177;-73
2021/06/08 14:53:11;;;;;;;19.77;18.03;;;25.00;99.90;;;;;;5071968;28;20268;-73
2021/06/08 14:55:38;;;;;;;19.10;17.30;;;25.10;99.90;;;;;;5072446;28;20212;-73
2021/06/08 14:58:03;;;;;;;18.63;16.80;;;25.00;99.90;;;;;;5072538;28;20180;-74
2021/06/08 15:00:31;;;;;;;18.77;16.87;;;25.10;99.90;;;;;;5071667;28;20407;-73
2021/06/08 15:02:56;;;;;;;23.23;19.10;;;25.20;99.90;;;;;;5071803;28;20187;-74
2021/06/08 15:05:22;;;;;;;20.93;19.03;;;25.50;99.90;;;;;;5072215;28;20418;-75
2021/06/08 15:07:47;;;;;;;18.27;16.50;;;25.70;99.90;;;;;;5072221;28;20543;-74
2021/06/08 15:10:13;;;;;;;18.03;16.43;;;25.80;99.90;;;;;;5072324;28;20187;-74
2021/06/08 15:12:38;;;;;;;18.93;17.23;;;25.70;99.90;;;;;;5070943;28;20203;-74
2021/06/08 15:15:06;;;;;;;21.13;18.50;;;25.60;99.90;;;;;;5072136;28;20253;-74
2021/06/08 15:17:33;;;;;;;19.47;17.67;;;25.30;99.90;;;;;;5071970;28;20164;-74
2021/06/08 15:20:01;;;;;;;17.60;16.10;;;25.30;99.90;;;;;;5072050;28;20418;-74
2021/06/08 15:22:27;;;;;;;20.23;18.27;;;25.20;99.90;;;;;;5071488;28;20426;-73
2021/06/08 15:24:53;;;;;;;18.77;16.83;;;25.10;99.90;;;;;;5070946;28;20510;-74
2021/06/08 15:27:18;;;;;;;19.50;16.30;;;25.20;99.90;;;;;;5071663;28;20490;-74
2021/06/08 15:29:44;;;;;;;19.30;17.47;;;25.10;99.90;;;;;;5072268;28;20209;-74
2021/06/08 15:32:09;;;;;;;17.77;15.97;;;25.20;99.90;;;;;;5071811;28;20196;-74
2021/06/08 15:34:36;;;;;;;20.23;17.03;;;25.20;99.90;;;;;;5070753;28;20700;-74
2021/06/08 15:37:02;;;;;;;18.37;16.70;;;25.30;99.90;;;;;;5071670;28;20172;-74
2021/06/08 15:39:28;;;;;;;18.83;17.03;;;25.30;99.90;;;;;;5070254;28;20411;-74
2021/06/08 15:41:53;;;;;;;17.70;16.10;;;25.40;99.90;;;;;;5071512;28;20437;-74
2021/06/08 15:44:19;;;;;;;18.73;16.90;;;25.20;99.90;;;;;;5071027;28;20179;-74
2021/06/08 15:46:45;;;;;;;17.97;16.10;;;25.30;99.90;;;;;;5071351;28;20176;-71
2021/06/08 15:49:10;;;;;;;17.73;16.00;;;25.40;99.90;;;;;;5070090;28;20236;-74
2021/06/08 15:51:37;;;;;;;17.90;16.30;;;25.40;99.90;;;;;;5071292;28;20277;-74
2021/06/08 15:54:04;;;;;;;17.50;15.90;;;25.70;99.90;;;;;;5070949;28;20277;-74
2021/06/08 15:56:29;;;;;;;17.17;15.67;;;25.90;99.90;;;;;;5071294;28;20777;-73
2021/06/08 15:58:55;;;;;;;17.87;16.00;;;25.80;99.90;;;;;;5070922;28;20418;-75
2021/06/08 16:01:20;;;;;;;17.03;15.53;;;25.70;99.90;;;;;;5071029;28;20599;-73
2021/06/08 16:03:47;;;;;;;18.87;17.10;;;25.60;99.90;;;;;;5070250;28;20322;-70
2021/06/08 16:06:13;;;;;;;16.67;15.33;;;25.50;99.90;;;;;;5071109;28;20177;-72
2021/06/08 16:08:39;;;;;;;18.17;15.27;;;25.50;99.90;;;;;;5069799;28;20418;-72
2021/06/08 16:11:05;;;;;;;16.70;15.10;;;25.50;99.90;;;;;;5070755;28;20201;-70
2021/06/08 16:13:30;;;;;;;18.67;16.40;;;25.50;99.90;;;;;;5069841;28;20173;-73
2021/06/08 16:15:56;;;;;;;19.80;16.93;;;25.50;99.90;;;;;;5071057;28;20176;-73
2021/06/08 16:18:21;;;;;;;17.17;15.57;;;25.50;99.90;;;;;;5070853;28;20601;-73
2021/06/08 16:20:47;;;;;;;17.33;15.83;;;25.40;99.90;;;;;;5070360;28;20540;-73
2021/06/08 16:23:12;;;;;;;17.73;16.27;;;25.30;99.90;;;;;;5047868;28;20193;-74
2021/06/08 16:25:38;;;;;;;20.73;17.43;;;25.20;99.90;;;;;;5030768;28;20216;-73
2021/06/08 16:28:04;;;;;;;18.10;16.30;;;25.10;99.90;;;;;;5029460;28;20619;-72
2021/06/08 16:30:29;;;;;;;16.10;14.50;;;25.10;99.90;;;;;;5029792;28;20203;-73
2021/06/08 16:32:55;;;;;;;14.70;13.40;;;24.90;99.90;;;;;;5029981;28;20209;-74
2021/06/08 16:35:20;;;;;;;15.57;13.93;;;24.90;99.90;;;;;;5028564;28;20751;-76
2021/06/08 16:37:46;;;;;;;15.30;13.90;;;24.90;99.90;;;;;;5030583;28;20185;-76
2021/06/08 16:40:12;;;;;;;9.87;8.97;;;24.80;99.90;;;;;;5029987;28;20177;-76
2021/06/08 16:42:38;;;;;;;7.90;6.63;;;24.60;99.90;;;;;;5029809;28;20201;-76
2021/06/08 16:45:05;;;;;;;6.37;5.87;;;24.20;99.90;;;;;;5029879;28;20416;-76
2021/06/08 16:47:31;;;;;;;5.97;5.57;;;23.80;99.90;;;;;;5030128;28;20186;-76
2021/06/08 16:49:57;;;;;;;11.27;6.63;;;23.40;99.90;;;;;;5030403;28;20909;-76
2021/06/08 16:55:09;;;;;;;9.47;8.67;;;23.00;99.90;;;;;;5030270;28;20980;-75
2021/06/08 16:57:34;;;;;;;8.80;8.03;;;22.80;99.90;;;;;;5029259;28;20479;-75
2021/06/08 17:00:00;;;;;;;11.17;9.97;;;22.60;99.90;;;;;;5031552;28;20428;-77
2021/06/08 17:02:26;;;;;;;12.30;11.30;;;22.30;99.90;;;;;;5032532;28;20567;-77
2021/06/08 17:04:52;;;;;;;15.70;14.17;;;22.10;99.90;;;;;;5038166;28;20443;-73
2021/06/08 17:07:17;;;;;;;20.20;15.10;;;22.00;99.90;;;;;;5032532;28;20559;-73
2021/06/08 17:09:44;;;;;;;19.53;17.57;;;21.70;99.90;;;;;;5028939;28;20189;-74
2021/06/08 17:12:10;;;;;;;21.97;19.50;;;21.70;99.90;;;;;;5029531;28;20194;-71
2021/06/08 17:14:36;;;;;;;25.97;19.57;;;21.50;99.90;;;;;;5029077;28;20467;-73
2021/06/08 17:17:03;;;;;;;22.43;20.20;;;21.40;99.90;;;;;;5030071;28;20190;-74
2021/06/08 17:19:28;;;;;;;23.10;20.47;;;21.30;99.90;;;;;;5029754;28;20421;-73